Time;durP1;ratioP1;P1;durP2;ratioP2;P2;SDS_P1;SDS_P2;PMS_P1;PMS_P2;Temp;Humidity;BMP_temperature;BMP_pressure;BME280_temperature;BME280_humidity;BME280_pressure;Samples;Min_cycle;Max_cycle;Signal;HPM_P1;HPM_P2
2024/03/12 00:00:22;;;;;;;6.27;4.97;;;5.70;77.00;;;5.07;78.37;97398.69;5056606;28;20508;-72
2024/03/12 00:02:50;;;;;;;6.57;4.83;;;5.70;77.50;;;5.05;78.76;97392.69;5055242;28;20456;-72
2024/03/12 00:05:21;;;;;;;8.23;5.13;;;5.70;77.70;;;5.04;78.52;97398.25;5057550;28;20462;-73
2024/03/12 00:07:49;;;;;;;4.90;4.50;;;5.60;77.90;;;5.19;77.81;97390.94;5056830;28;20554;-72
2024/03/12 00:10:19;;;;;;;5.60;4.73;;;5.70;78.30;;;5.31;77.11;97401.94;5060632;28;20451;-73
2024/03/12 00:12:48;;;;;;;5.20;3.80;;;5.70;77.80;;;5.34;76.71;97396.19;5058046;28;20459;-72
2024/03/12 00:15:19;;;;;;;5.30;4.40;;;5.80;77.70;;;5.38;76.50;97402.81;5063570;28;20462;-71
2024/03/12 00:17:49;;;;;;;4.07;3.67;;;5.90;77.50;;;5.34;76.67;97400.72;5058277;28;20455;-72
2024/03/12 00:20:24;;;;;;;6.33;4.50;;;5.90;77.50;;;5.18;77.71;97410.72;5060184;28;20465;-73
2024/03/12 00:22:52;;;;;;;4.97;4.40;;;5.80;77.30;;;4.97;78.27;97403.56;5054651;28;21191;-73
2024/03/12 00:25:21;;;;;;;8.13;4.87;;;5.60;77.50;;;4.76;79.45;97407.91;5057331;28;20520;-73
2024/03/12 00:27:50;;;;;;;5.27;4.77;;;5.40;77.90;;;4.42;79.80;97368.53;5056325;28;20488;-73
2024/03/12 00:30:19;;;;;;;5.20;4.70;;;5.30;78.50;;;4.75;79.40;97410.81;5050903;28;20463;-73
2024/03/12 00:32:49;;;;;;;5.83;5.20;;;5.20;79.20;;;4.68;79.48;97416.09;5048526;28;20897;-73
2024/03/12 00:35:17;;;;;;;6.73;4.90;;;5.30;79.00;;;4.22;79.38;97332.56;5041765;28;20450;-72
2024/03/12 00:37:50;;;;;;;6.60;5.13;;;5.30;79.10;;;4.81;79.67;97415.38;5054033;28;20455;-73
2024/03/12 00:40:22;;;;;;;5.37;4.87;;;5.30;79.40;;;4.85;80.32;97421.97;5060553;28;20458;-72
2024/03/12 00:42:50;;;;;;;6.73;5.20;;;5.30;79.40;;;4.75;79.72;97426.84;5055186;28;20449;-72
2024/03/12 00:45:25;;;;;;;5.30;4.80;;;5.30;79.30;;;4.66;80.98;97435.00;5052847;28;20542;-72
2024/03/12 00:47:53;;;;;;;5.80;5.07;;;5.30;79.40;;;4.53;81.02;97429.53;5048277;28;20458;-73
2024/03/12 00:50:21;;;;;;;6.63;5.47;;;5.20;79.60;;;4.35;81.82;97427.31;5050593;28;20454;-73
2024/03/12 00:52:53;;;;;;;5.67;5.07;;;5.00;79.80;;;4.34;82.30;97437.16;5051823;28;20479;-73
2024/03/12 00:55:20;;;;;;;5.70;5.20;;;4.90;80.80;;;4.47;81.66;97436.47;5047009;28;20440;-73
2024/03/12 00:57:52;;;;;;;7.83;5.20;;;5.00;80.90;;;4.59;81.65;97452.88;5057724;28;20462;-73
2024/03/12 01:00:25;;;;;;;6.33;5.30;;;5.10;80.90;;;4.39;81.11;97412.53;5049966;28;20449;-73
2024/03/12 01:02:54;;;;;;;9.57;5.07;;;5.20;80.60;;;4.51;81.98;97445.78;5059489;28;20455;-73
2024/03/12 01:05:25;;;;;;;5.10;4.53;;;5.20;80.60;;;4.48;82.60;97437.31;5058685;28;20453;-74
2024/03/12 01:07:58;;;;;;;4.63;4.23;;;5.20;80.60;;;4.46;82.34;97445.50;5060180;28;20549;-74
2024/03/12 01:10:28;;;;;;;5.00;4.50;;;5.20;80.60;;;4.38;82.86;97453.66;5057741;28;20473;-71
2024/03/12 01:12:56;;;;;;;5.70;4.47;;;5.10;80.60;;;4.33;82.46;97464.13;5059417;28;20457;-73
2024/03/12 01:15:25;;;;;;;5.40;4.60;;;5.00;80.70;;;4.13;82.71;97450.53;5054674;28;20988;-72
2024/03/12 01:17:54;;;;;;;5.80;4.40;;;4.90;80.80;;;4.11;83.44;97459.56;5050543;28;20460;-73
2024/03/12 01:20:22;;;;;;;5.00;4.60;;;4.90;81.20;;;4.05;83.87;97456.81;5052749;28;20451;-71
2024/03/12 01:22:50;;;;;;;5.63;4.10;;;4.80;81.50;;;3.94;84.59;97447.41;5061047;28;20454;-74
2024/03/12 01:25:21;;;;;;;4.70;4.30;;;4.70;82.00;;;3.85;85.40;97460.03;5051363;28;20486;-72
2024/03/12 01:27:49;;;;;;;7.20;5.17;;;4.50;82.50;;;3.96;85.01;97456.91;5061261;28;20562;-73
2024/03/12 01:30:20;;;;;;;8.37;4.90;;;4.50;83.40;;;4.02;84.78;97458.00;5051682;28;20566;-73
2024/03/12 01:32:51;;;;;;;4.90;4.20;;;4.60;83.20;;;3.49;84.49;97378.00;5052598;28;20945;-73
2024/03/12 01:35:20;;;;;;;5.70;4.47;;;4.70;83.00;;;3.96;84.78;97456.91;5051547;28;20477;-73
2024/03/12 01:37:51;;;;;;;6.63;4.63;;;4.70;82.60;;;3.87;84.64;97460.72;5062629;28;20458;-73
2024/03/12 01:40:23;;;;;;;6.47;4.70;;;4.70;82.60;;;3.85;84.38;97459.22;5060486;28;20540;-73
2024/03/12 01:42:56;;;;;;;9.00;4.90;;;4.60;82.50;;;3.63;85.36;97457.31;5058318;28;20463;-73
2024/03/12 01:45:25;;;;;;;6.20;4.63;;;4.40;82.30;;;3.58;86.21;97442.84;5052601;28;20529;-72
2024/03/12 01:47:56;;;;;;;6.30;4.80;;;4.30;83.40;;;3.65;85.68;97455.28;5080806;28;20498;-72
2024/03/12 01:50:26;;;;;;;5.27;4.27;;;4.30;83.60;;;3.63;85.84;97456.47;5056994;28;21017;-74
2024/03/12 01:52:59;;;;;;;5.13;4.27;;;4.30;83.60;;;3.62;85.63;97463.66;5055049;28;20448;-73
2024/03/12 01:55:28;;;;;;;6.40;4.30;;;4.40;83.60;;;3.57;85.77;97468.75;5061380;28;20955;-72
2024/03/12 01:57:55;;;;;;;8.13;4.83;;;4.30;83.40;;;3.57;86.40;97460.72;5054753;28;20976;-72
2024/03/12 02:00:25;;;;;;;5.90;4.40;;;4.30;83.90;;;3.51;86.62;97470.31;5063345;28;20506;-72
2024/03/12 02:02:52;;;;;;;6.33;4.40;;;4.30;83.70;;;3.46;86.38;97466.53;5059703;28;20459;-73
2024/03/12 02:05:23;;;;;;;6.43;4.70;;;4.30;83.70;;;3.29;86.78;97465.84;5055718;28;20466;-73
2024/03/12 02:07:53;;;;;;;5.20;4.70;;;4.10;83.60;;;3.34;87.95;97464.28;5042688;28;21042;-73
2024/03/12 02:10:21;;;;;;;7.43;4.73;;;4.10;85.00;;;3.24;88.04;97461.03;5048880;28;20990;-72
2024/03/12 02:12:57;;;;;;;5.90;4.23;;;4.00;84.80;;;3.09;88.94;97472.53;5039229;28;20456;-72
2024/03/12 02:15:25;;;;;;;6.10;4.40;;;3.90;85.20;;;3.12;89.45;97466.00;5059433;28;20555;-73
2024/03/12 02:17:52;;;;;;;5.10;4.40;;;3.80;86.50;;;2.88;88.61;97429.69;5057336;28;20884;-73
2024/03/12 02:20:21;;;;;;;5.80;4.67;;;3.80;86.90;;;2.99;89.88;97474.63;5050646;28;20506;-72
2024/03/12 02:22:48;;;;;;;5.83;4.20;;;3.70;86.90;;;2.99;90.31;97477.31;5073502;28;20446;-73
2024/03/12 02:25:17;;;;;;;6.97;4.90;;;3.60;88.20;;;3.01;90.70;97485.97;5056197;28;20448;-73
2024/03/12 02:27:45;;;;;;;6.53;5.00;;;3.70;88.80;;;3.00;90.62;97494.13;5061321;28;20928;-73
2024/03/12 02:30:14;;;;;;;8.13;4.70;;;3.70;88.80;;;3.20;90.40;97483.78;5062488;28;20968;-73
2024/03/12 02:32:41;;;;;;;5.50;4.30;;;3.80;90.00;;;3.27;89.62;97484.75;5055197;28;20454;-73
2024/03/12 02:35:11;;;;;;;5.73;4.80;;;3.90;89.10;;;3.20;89.90;97489.13;5062953;28;20462;-73
2024/03/12 02:37:40;;;;;;;5.07;4.27;;;3.90;88.10;;;3.20;90.28;97489.13;5071940;28;20476;-73
2024/03/12 02:40:12;;;;;;;4.60;3.80;;;3.90;88.60;;;3.33;88.83;97500.03;5071068;28;21002;-74
2024/03/12 02:42:42;;;;;;;6.90;4.47;;;4.00;88.60;;;3.33;88.76;97504.50;5057434;28;20610;-74
2024/03/12 02:45:14;;;;;;;5.03;4.00;;;4.00;87.50;;;3.30;88.19;97512.91;5061557;28;20454;-73
2024/03/12 02:47:42;;;;;;;6.23;4.20;;;4.00;87.10;;;3.23;89.09;97505.63;5063704;28;20496;-73
2024/03/12 02:50:11;;;;;;;6.77;4.37;;;4.00;86.90;;;2.98;89.23;97491.66;5049961;28;20534;-72
2024/03/12 02:52:41;;;;;;;4.50;3.60;;;3.90;86.80;;;2.48;89.60;97425.34;5043010;28;20481;-72
2024/03/12 02:55:10;;;;;;;6.00;4.50;;;3.80;87.50;;;2.93;90.82;97515.38;5060425;28;20462;-72
2024/03/12 02:57:38;;;;;;;6.47;4.10;;;3.60;87.80;;;2.90;90.63;97516.59;5063091;28;21012;-71
2024/03/12 03:00:11;;;;;;;4.73;3.87;;;3.60;89.00;;;2.92;90.99;97524.38;5058183;28;20472;-72
2024/03/12 03:02:39;;;;;;;4.87;4.10;;;3.50;90.00;;;3.08;90.46;97520.78;5052577;28;20462;-73
2024/03/12 03:05:09;;;;;;;4.87;4.40;;;3.70;90.10;;;3.07;90.19;97517.25;5058576;28;20466;-73
2024/03/12 03:07:37;;;;;;;7.33;5.10;;;3.70;89.40;;;3.09;91.44;97514.44;5060758;28;20453;-73
2024/03/12 03:10:06;;;;;;;5.13;4.73;;;3.80;89.70;;;3.25;91.19;97529.47;5041254;28;20481;-73
2024/03/12 03:12:34;;;;;;;5.13;4.67;;;3.90;90.10;;;3.26;90.86;97521.28;5056441;28;20504;-72
2024/03/12 03:15:03;;;;;;;6.30;4.37;;;3.90;90.10;;;3.30;91.44;97536.94;5056839;28;20861;-74
2024/03/12 03:17:32;;;;;;;6.90;5.10;;;4.00;90.00;;;3.39;90.99;97531.31;5060384;28;20537;-75
2024/03/12 03:20:00;;;;;;;6.40;4.93;;;4.10;90.10;;;3.45;90.92;97535.13;5058854;28;20983;-74
2024/03/12 03:22:29;;;;;;;9.47;5.33;;;4.10;89.80;;;3.43;91.81;97536.34;5059396;28;20565;-74
2024/03/12 03:24:57;;;;;;;5.40;4.50;;;4.10;90.00;;;3.36;91.10;97537.03;5057636;28;20523;-74
2024/03/12 03:27:24;;;;;;;5.67;4.93;;;4.10;89.30;;;3.35;91.27;97539.91;5075010;28;20983;-74
2024/03/12 03:29:56;;;;;;;5.27;4.80;;;4.10;89.90;;;3.42;91.32;97545.34;5066047;28;20501;-73
2024/03/12 03:32:24;;;;;;;5.27;4.80;;;4.10;90.10;;;3.38;91.53;97545.69;5063333;28;20451;-74
2024/03/12 03:34:53;;;;;;;5.63;5.13;;;4.10;90.00;;;3.36;91.06;97546.91;5065169;28;20451;-74
2024/03/12 03:37:21;;;;;;;7.17;5.10;;;4.00;89.70;;;3.35;91.09;97546.06;5056851;28;20451;-73
2024/03/12 03:39:48;;;;;;;5.57;4.60;;;4.00;89.70;;;3.46;90.67;97550.13;5057450;28;20465;-74
2024/03/12 03:42:17;;;;;;;5.73;4.97;;;4.10;89.90;;;3.44;90.61;97548.69;5055790;28;20442;-73
2024/03/12 03:44:45;;;;;;;5.90;5.30;;;4.10;90.00;;;3.45;91.21;97555.66;5046820;28;20444;-73
2024/03/12 03:47:12;;;;;;;5.30;4.80;;;4.10;89.60;;;3.45;90.99;97556.50;5061334;28;20833;-74
2024/03/12 03:49:40;;;;;;;6.50;5.07;;;4.20;89.30;;;3.47;90.47;97559.81;5079593;28;20850;-73
2024/03/12 03:52:09;;;;;;;5.07;4.50;;;4.10;89.40;;;3.28;90.40;97528.28;5057365;28;20478;-74
2024/03/12 03:54:37;;;;;;;5.33;4.73;;;4.20;89.80;;;3.51;89.93;97563.78;5058181;28;20458;-74
2024/03/12 03:57:06;;;;;;;5.70;5.20;;;4.20;89.00;;;3.43;90.25;97565.72;5060657;28;20460;-73
2024/03/12 03:59:33;;;;;;;5.80;5.20;;;4.10;88.80;;;3.34;91.26;97565.78;5063972;28;20472;-73
2024/03/12 04:02:00;;;;;;;4.83;4.33;;;4.00;88.80;;;3.27;90.68;97546.16;5058814;28;20510;-73
2024/03/12 04:04:27;;;;;;;5.67;5.17;;;4.00;89.70;;;3.32;89.46;97566.94;5054925;28;20951;-72
2024/03/12 04:06:56;;;;;;;7.47;5.67;;;4.00;88.60;;;3.18;89.75;97563.25;5039013;28;20944;-73
2024/03/12 04:09:26;;;;;;;6.97;6.27;;;4.00;87.60;;;2.98;90.00;97579.75;5052147;28;20564;-73
2024/03/12 04:11:54;;;;;;;5.77;5.27;;;3.80;87.10;;;2.76;89.72;97568.84;5059331;28;20450;-73
2024/03/12 04:14:25;;;;;;;8.60;4.87;;;3.70;87.20;;;2.75;90.46;97577.88;5055293;28;20444;-73
2024/03/12 04:16:53;;;;;;;5.60;5.10;;;3.60;87.50;;;2.54;90.69;97566.00;5054538;28;20466;-73
2024/03/12 04:19:21;;;;;;;6.83;5.70;;;3.50;87.60;;;2.52;90.64;97578.69;5054797;28;20462;-75
2024/03/12 04:21:51;;;;;;;5.40;4.90;;;3.40;87.90;;;2.57;90.90;97593.31;5057157;28;20851;-73
2024/03/12 04:24:18;;;;;;;6.23;5.70;;;3.40;88.20;;;2.47;91.16;97596.22;5058076;28;20444;-73
2024/03/12 04:26:48;;;;;;;6.47;5.87;;;3.30;88.10;;;2.38;91.26;97595.41;5030343;28;20954;-73
2024/03/12 04:29:16;;;;;;;5.80;4.57;;;3.10;88.60;;;1.95;91.65;97540.59;5057705;28;20551;-73
2024/03/12 04:31:43;;;;;;;7.23;5.00;;;3.10;89.30;;;2.32;92.23;97601.44;5064814;28;20898;-74
2024/03/12 04:34:12;;;;;;;6.00;5.30;;;3.10;90.00;;;2.12;93.64;97609.84;5053552;28;20457;-72
2024/03/12 04:36:40;;;;;;;6.37;5.40;;;2.90;89.80;;;2.14;94.18;97602.50;5052199;28;20468;-74
2024/03/12 04:39:30;;;;;;;7.57;5.80;;;2.80;90.80;;;2.21;93.02;97608.81;5059312;28;20449;-72
2024/03/12 04:42:02;;;;;;;7.37;5.90;;;2.90;91.20;;;1.76;93.60;97552.47;5056464;28;20460;-73
2024/03/12 04:44:29;;;;;;;6.97;5.30;;;2.80;90.90;;;2.00;94.31;97616.53;5049617;28;21019;-73
2024/03/12 04:46:57;;;;;;;6.13;5.00;;;2.80;91.50;;;2.16;94.74;97616.47;5051577;28;21183;-73
2024/03/12 04:49:25;;;;;;;6.30;5.63;;;2.80;92.00;;;2.12;94.47;97620.50;5059207;28;20526;-72
2024/03/12 04:51:53;;;;;;;8.10;5.20;;;2.80;92.10;;;2.24;94.02;97624.47;5058737;28;20449;-72
2024/03/12 04:54:20;;;;;;;7.50;5.87;;;2.90;92.20;;;2.30;93.55;97627.44;5051391;28;21073;-72
2024/03/12 04:56:50;;;;;;;7.07;5.80;;;2.90;91.80;;;2.28;93.93;97618.78;5054792;28;20457;-73
2024/03/12 04:59:21;;;;;;;6.33;5.73;;;2.90;91.50;;;2.36;93.41;97632.09;5058781;28;21005;-72
2024/03/12 05:01:49;;;;;;;6.90;5.90;;;3.00;91.40;;;2.22;92.96;97626.47;5052163;28;20829;-72
2024/03/12 05:04:17;;;;;;;9.93;5.47;;;3.10;90.90;;;2.16;93.80;97643.13;5056260;28;20515;-73
2024/03/12 05:06:44;;;;;;;6.53;5.47;;;3.00;90.90;;;2.00;94.49;97640.50;5057687;28;21063;-73
2024/03/12 05:09:17;;;;;;;6.33;5.33;;;2.80;90.80;;;1.90;94.98;97636.22;5059871;28;20548;-73
2024/03/12 05:11:45;;;;;;;8.20;6.30;;;2.70;91.50;;;1.98;94.76;97649.50;5058703;28;20480;-73
2024/03/12 05:14:12;;;;;;;5.73;5.23;;;2.80;91.90;;;1.97;94.13;97647.84;5058920;28;20457;-73
2024/03/12 05:16:41;;;;;;;9.07;5.37;;;2.70;91.40;;;2.07;93.93;97671.63;5059158;28;20465;-74
2024/03/12 05:19:10;;;;;;;9.60;5.77;;;2.80;91.50;;;2.00;93.94;97661.81;5067735;28;20453;-73
2024/03/12 05:21:39;;;;;;;6.10;5.37;;;2.80;91.10;;;1.93;94.46;97662.50;5056275;28;20476;-75
2024/03/12 05:24:09;;;;;;;6.33;5.73;;;2.80;90.90;;;1.91;94.22;97664.53;5057206;28;20999;-73
2024/03/12 05:26:44;;;;;;;6.30;5.20;;;2.80;90.90;;;1.95;93.99;97657.84;5050519;28;20456;-72
2024/03/12 05:29:12;;;;;;;7.43;5.60;;;2.80;90.80;;;1.88;93.97;97659.50;5060206;28;20458;-72
2024/03/12 05:31:43;;;;;;;6.87;5.90;;;2.80;90.80;;;1.87;94.09;97684.47;5060037;28;21130;-73
2024/03/12 05:34:16;;;;;;;6.53;5.83;;;2.80;90.50;;;1.73;94.24;97674.50;5057634;28;20462;-73
2024/03/12 05:36:48;;;;;;;6.57;5.90;;;2.70;90.50;;;1.72;94.29;97672.84;5053910;28;20540;-73
2024/03/12 05:39:19;;;;;;;7.83;5.70;;;2.70;90.50;;;1.69;94.70;97672.19;5051579;28;20545;-78
2024/03/12 05:48:07;;;;;;;7.53;5.70;;;2.70;90.80;;;1.89;95.46;97674.47;5062475;28;20462;-79
2024/03/12 05:50:16;;;;;;;6.20;5.60;;;2.90;90.60;;;2.10;93.68;97681.13;5064509;28;20503;-76
2024/03/12 05:52:46;;;;;;;7.00;5.50;;;3.00;90.50;;;2.31;92.52;97685.09;5053539;28;20484;-73
2024/03/12 05:55:15;;;;;;;7.73;5.73;;;3.20;89.50;;;2.60;91.30;97689.00;5060649;28;20462;-77
2024/03/12 05:57:43;;;;;;;9.67;5.23;;;3.30;89.10;;;2.48;90.86;97681.34;5069549;28;20905;-75
2024/03/12 06:00:13;;;;;;;8.50;6.13;;;3.40;87.80;;;2.55;90.68;97685.00;5065995;28;20541;-78
2024/03/12 06:02:41;;;;;;;7.47;5.40;;;3.50;87.20;;;2.74;89.83;97692.78;5066568;28;20461;-75
2024/03/12 06:05:12;;;;;;;6.50;5.90;;;3.60;87.40;;;2.63;89.92;97707.31;5063824;28;20461;-76
2024/03/12 06:07:44;;;;;;;9.17;5.60;;;3.60;86.80;;;2.69;89.75;97706.66;5059291;28;20522;-76
2024/03/12 06:10:12;;;;;;;8.67;6.77;;;3.60;86.60;;;2.75;89.69;97703.28;5064476;28;20852;-77
2024/03/12 06:12:40;;;;;;;7.80;6.20;;;3.60;86.40;;;2.87;89.38;97708.22;5058060;28;20457;-71
2024/03/12 06:15:09;;;;;;;7.67;6.30;;;3.70;86.70;;;3.02;89.04;97695.81;5060333;28;20528;-73
2024/03/12 06:17:37;;;;;;;7.00;5.83;;;3.80;86.50;;;3.25;87.84;97721.72;5042257;28;20824;-72
2024/03/12 06:20:07;;;;;;;10.20;5.93;;;3.90;86.10;;;3.28;87.87;97704.50;5053977;28;20469;-71
2024/03/12 06:22:35;;;;;;;7.87;6.10;;;4.00;85.70;;;3.38;87.42;97699.78;5063754;28;20463;-70
2024/03/12 06:25:02;;;;;;;8.50;6.30;;;4.10;85.40;;;3.40;87.24;97701.25;5062955;28;20862;-72
2024/03/12 06:27:29;;;;;;;9.47;7.30;;;4.20;84.90;;;3.68;87.84;97700.72;5063990;28;20469;-72
2024/03/12 06:29:56;;;;;;;7.50;6.10;;;4.40;85.10;;;3.40;86.57;97709.25;5037996;28;20477;-71
2024/03/12 06:32:25;;;;;;;8.13;6.40;;;4.40;84.30;;;3.48;86.38;97711.03;5057001;28;20449;-71
2024/03/12 06:34:52;;;;;;;8.50;6.53;;;4.40;84.30;;;3.58;85.45;97713.50;5053015;28;20454;-73
2024/03/12 06:37:23;;;;;;;11.63;7.17;;;4.40;83.60;;;3.43;85.04;97715.28;5056979;28;21038;-74
2024/03/12 06:39:52;;;;;;;7.60;5.60;;;4.50;83.00;;;3.36;85.32;97726.66;5062032;28;20456;-73
2024/03/12 06:42:25;;;;;;;7.27;6.43;;;4.40;82.60;;;3.25;85.63;97732.38;5061032;28;20457;-75
2024/03/12 06:44:54;;;;;;;6.30;5.70;;;4.30;82.80;;;3.51;85.29;97741.94;5057978;28;20459;-75
2024/03/12 06:47:22;;;;;;;12.70;6.80;;;4.40;83.00;;;3.67;83.97;97736.47;5062624;28;20488;-76
2024/03/12 06:49:50;;;;;;;8.97;7.07;;;4.50;83.00;;;3.66;84.33;97718.78;5060824;28;20480;-70
2024/03/12 06:52:17;;;;;;;6.87;5.43;;;4.50;82.80;;;3.85;83.83;97738.00;5076982;28;20456;-70
2024/03/12 06:54:48;;;;;;;7.23;6.03;;;4.60;82.90;;;3.91;83.18;97726.59;5059819;28;20452;-71
2024/03/12 06:57:19;;;;;;;11.50;5.63;;;4.70;82.60;;;4.00;84.01;97737.22;5053933;28;20453;-70
2024/03/12 06:59:48;;;;;;;10.33;6.23;;;4.80;82.50;;;4.07;84.43;97733.63;5057720;28;20471;-70
2024/03/12 07:02:18;;;;;;;9.00;5.93;;;4.80;82.60;;;4.03;83.21;97740.38;5052613;28;20527;-72
2024/03/12 07:04:48;;;;;;;9.30;5.60;;;4.90;82.50;;;4.25;83.66;97736.00;5054887;28;20468;-70
2024/03/12 07:07:18;;;;;;;7.93;5.50;;;5.00;82.80;;;4.22;82.71;97706.94;5057721;28;20555;-72
2024/03/12 07:09:49;;;;;;;8.33;5.80;;;5.10;82.50;;;4.37;83.13;97735.56;5054740;28;20459;-70
2024/03/12 07:12:18;;;;;;;12.57;6.07;;;5.10;82.30;;;4.51;82.70;97744.59;5046073;28;20465;-72
2024/03/12 07:14:54;;;;;;;9.73;6.70;;;5.20;82.30;;;4.50;83.08;97741.13;5055814;28;20455;-71
2024/03/12 07:17:22;;;;;;;9.60;5.90;;;5.30;82.30;;;4.86;81.40;97744.06;5051580;28;20464;-71
2024/03/12 07:19:59;;;;;;;10.47;6.80;;;5.60;82.20;;;4.89;80.62;97727.63;5059029;28;20968;-73
2024/03/12 07:22:27;;;;;;;8.33;5.90;;;5.80;81.40;;;5.35;79.98;97732.72;5056991;28;20496;-72
2024/03/12 07:24:56;;;;;;;9.27;6.87;;;5.90;81.40;;;5.28;79.37;97742.53;5059762;28;20535;-72
2024/03/12 07:27:24;;;;;;;8.63;6.03;;;6.00;80.80;;;5.14;79.73;97741.53;5058491;28;20446;-70
2024/03/12 07:29:53;;;;;;;10.87;7.00;;;6.00;80.70;;;5.07;80.45;97746.81;5060358;28;21127;-71
2024/03/12 07:32:20;;;;;;;7.60;6.67;;;5.90;80.90;;;5.36;79.65;97749.63;5055396;28;20490;-69
2024/03/12 07:34:49;;;;;;;9.53;7.37;;;6.10;81.00;;;5.48;79.07;97744.59;5052653;28;20944;-70
2024/03/12 07:37:18;;;;;;;8.20;5.57;;;6.20;80.60;;;5.55;78.72;97737.47;5058899;28;20457;-74
2024/03/12 07:39:46;;;;;;;7.63;5.60;;;6.30;80.50;;;5.78;77.82;97747.19;5056453;28;20462;-72
2024/03/12 07:42:19;;;;;;;8.27;6.13;;;6.50;80.20;;;6.03;76.71;97749.50;5053032;28;20451;-72
2024/03/12 07:44:47;;;;;;;8.30;6.43;;;6.80;79.80;;;6.51;74.89;97754.22;5057370;28;20454;-72
2024/03/12 07:47:15;;;;;;;12.87;7.17;;;7.10;79.60;;;6.63;74.81;97765.25;5061307;28;20522;-71
2024/03/12 07:49:43;;;;;;;11.93;6.20;;;7.10;79.30;;;6.59;74.53;97747.84;5056499;28;20460;-73
2024/03/12 07:52:11;;;;;;;6.90;6.30;;;7.30;78.80;;;6.85;73.47;97747.22;5075872;28;20516;-71
2024/03/12 07:54:39;;;;;;;8.00;5.77;;;7.50;78.40;;;7.06;73.44;97748.13;5053517;28;20472;-72
2024/03/12 07:57:10;;;;;;;7.20;6.07;;;7.50;78.50;;;7.11;73.34;97750.22;5056992;28;20510;-70
2024/03/12 07:59:43;;;;;;;18.27;6.10;;;7.70;78.40;;;7.09;72.68;97739.66;5057390;28;20449;-73
2024/03/12 08:02:23;;;;;;;7.67;6.67;;;8.00;77.70;;;7.08;71.35;97708.47;5076411;28;20463;-71
2024/03/12 08:04:51;;;;;;;7.70;6.03;;;8.10;77.30;;;7.54;70.72;97766.13;5055672;28;20459;-72
2024/03/12 08:07:23;;;;;;;7.50;6.20;;;8.20;77.10;;;7.48;70.60;97756.16;5055716;28;20467;-71
2024/03/12 08:09:51;;;;;;;9.60;5.83;;;8.20;76.80;;;7.90;70.23;97772.19;5046354;28;20459;-72
2024/03/12 08:12:19;;;;;;;11.60;6.20;;;8.40;76.90;;;8.17;69.64;97769.53;5046165;28;20487;-72
2024/03/12 08:14:48;;;;;;;8.27;6.07;;;8.60;76.70;;;8.29;68.76;97775.16;5057370;28;20463;-71
2024/03/12 08:17:16;;;;;;;11.83;6.37;;;8.70;76.30;;;8.49;68.32;97757.09;5056661;28;20549;-71
2024/03/12 08:19:44;;;;;;;10.70;6.57;;;9.00;76.20;;;8.35;68.46;97731.22;5064758;28;21179;-72
2024/03/12 08:22:27;;;;;;;7.13;6.00;;;9.10;76.10;;;8.60;68.42;97762.94;5061387;28;20462;-72
2024/03/12 08:24:55;;;;;;;6.23;5.60;;;9.30;75.60;;;8.61;68.60;97765.41;5062799;28;20488;-72
2024/03/12 08:27:23;;;;;;;8.70;6.03;;;9.30;75.60;;;8.60;69.31;97771.84;5056709;28;20448;-72
2024/03/12 08:29:53;;;;;;;8.50;5.77;;;9.40;75.50;;;8.55;70.02;97770.78;5056032;28;20456;-72
2024/03/12 08:32:21;;;;;;;9.93;5.67;;;9.30;75.80;;;8.70;70.07;97768.72;5052265;28;20473;-72
2024/03/12 08:34:48;;;;;;;5.70;5.20;;;9.40;76.00;;;8.72;69.72;97768.50;5056817;28;20947;-72
2024/03/12 08:37:59;;;;;;;6.90;5.97;;;9.40;75.90;;;8.51;70.79;97756.94;5040802;28;20812;-71
2024/03/12 08:40:59;;;;;;;6.77;6.00;;;9.40;76.00;;;7.48;70.25;97587.63;5047642;28;20542;-72
2024/03/12 08:43:32;;;;;;;6.90;6.10;;;9.40;76.10;;;8.59;70.23;97815.16;5041151;28;20465;-73
2024/03/12 08:46:30;;;;;;;6.43;5.77;;;9.40;76.10;;;8.44;69.33;97668.06;5057935;28;20689;-71
2024/03/12 08:49:27;;;;;;;6.57;5.93;;;9.60;76.40;;;9.27;68.38;97800.50;5054679;28;20481;-74
2024/03/12 08:52:00;;;;;;;5.73;4.63;;;9.80;76.10;;;9.18;69.89;97786.44;5051330;28;20530;-71
2024/03/12 08:54:37;;;;;;;6.03;5.43;;;9.90;76.10;;;9.42;68.72;97794.03;5059637;28;20469;-73
2024/03/12 08:57:07;;;;;;;5.57;5.07;;;10.00;75.20;;;9.18;69.15;97786.44;5055184;28;20451;-71
2024/03/12 08:59:34;;;;;;;6.30;5.70;;;10.00;75.00;;;9.47;69.38;97789.66;5060483;28;20460;-71
2024/03/12 09:02:03;;;;;;;4.80;4.40;;;10.00;75.20;;;9.47;69.16;97788.81;5061287;28;20538;-71
2024/03/12 09:04:31;;;;;;;5.97;5.00;;;10.10;75.10;;;9.68;68.75;97794.97;5054258;28;20479;-70
2024/03/12 09:06:58;;;;;;;6.00;5.50;;;10.20;75.00;;;9.62;68.21;97799.34;5060018;28;20499;-71
2024/03/12 09:09:26;;;;;;;5.80;5.20;;;10.30;74.80;;;9.85;68.34;97796.13;5054821;28;20731;-70
2024/03/12 09:11:55;;;;;;;5.83;5.10;;;10.40;74.70;;;9.68;67.87;97805.75;5055204;28;20823;-71
2024/03/12 09:14:23;;;;;;;5.10;4.60;;;10.40;74.40;;;9.16;69.10;97799.31;5054224;28;20545;-71
2024/03/12 09:16:50;;;;;;;5.87;5.37;;;10.10;74.40;;;8.85;70.74;97799.97;5054337;28;20529;-70
2024/03/12 09:19:21;;;;;;;5.67;4.90;;;9.70;75.90;;;8.68;71.60;97792.34;5060236;28;20878;-70
2024/03/12 09:21:48;;;;;;;5.90;4.97;;;9.50;76.40;;;8.86;71.62;97805.16;5051461;28;20452;-70
2024/03/12 09:24:18;;;;;;;5.53;5.03;;;9.50;76.60;;;8.90;71.61;97789.41;5052981;28;20457;-70
2024/03/12 09:26:46;;;;;;;5.50;4.07;;;9.50;76.50;;;9.00;71.37;97803.25;5046554;28;20447;-70
2024/03/12 09:29:13;;;;;;;6.30;4.70;;;9.50;76.60;;;9.12;69.73;97802.63;5057849;28;21249;-70
2024/03/12 09:31:41;;;;;;;4.80;4.33;;;9.70;76.60;;;8.99;70.08;97804.31;5060172;28;20541;-70
2024/03/12 09:34:09;;;;;;;5.60;5.00;;;9.60;76.30;;;9.21;69.42;97812.16;5051205;28;21081;-72
2024/03/12 09:36:37;;;;;;;6.97;5.23;;;9.70;76.40;;;9.35;68.82;97808.38;5053873;28;20460;-71
2024/03/12 09:39:10;;;;;;;5.30;4.43;;;9.80;76.10;;;9.26;69.32;97801.56;5065491;28;20451;-73
2024/03/12 09:41:39;;;;;;;5.33;4.60;;;9.90;76.00;;;9.48;68.60;97814.75;5056166;28;22140;-71
2024/03/12 09:44:11;;;;;;;5.70;5.20;;;10.00;75.00;;;9.55;68.72;97812.84;5060716;28;20456;-72
2024/03/12 09:46:39;;;;;;;5.67;4.80;;;10.10;74.60;;;9.32;69.09;97816.88;5065011;28;20462;-72
2024/03/12 09:49:12;;;;;;;7.40;4.77;;;10.00;74.50;;;9.11;69.47;97817.13;5056218;28;20467;-70
2024/03/12 09:51:41;;;;;;;5.60;4.23;;;9.90;75.60;;;8.75;71.54;97819.25;5065564;28;20957;-71
2024/03/12 09:54:09;;;;;;;5.80;4.80;;;9.60;76.00;;;8.80;71.71;97822.19;5057810;28;20453;-71
2024/03/12 09:56:37;;;;;;;7.00;4.97;;;9.50;76.40;;;9.09;69.74;97814.66;5061608;28;20518;-71
2024/03/12 09:59:07;;;;;;;5.30;4.80;;;9.70;76.30;;;9.01;70.06;97801.41;5061403;28;20449;-74
2024/03/12 10:01:38;;;;;;;6.90;5.10;;;9.80;76.20;;;9.16;70.12;97806.53;5057398;28;20444;-71
2024/03/12 10:04:07;;;;;;;5.80;5.20;;;9.90;76.00;;;8.92;69.69;97771.16;5057159;28;20466;-70
2024/03/12 10:06:35;;;;;;;5.43;4.93;;;9.90;75.90;;;9.50;69.56;97818.06;5057276;28;20783;-70
2024/03/12 10:09:08;;;;;;;8.83;5.50;;;10.00;74.90;;;9.54;68.96;97826.53;5061797;28;21003;-70
2024/03/12 10:11:35;;;;;;;4.67;4.20;;;10.10;74.80;;;9.76;68.39;97822.53;5052937;28;20864;-71
2024/03/12 10:14:03;;;;;;;4.10;3.80;;;10.20;74.80;;;9.62;68.57;97837.91;5059130;28;20467;-72
2024/03/12 10:16:32;;;;;;;5.43;4.93;;;10.20;74.50;;;9.98;67.31;97824.06;5064493;28;20476;-72
2024/03/12 10:19:14;;;;;;;5.17;4.67;;;10.40;74.50;;;9.81;67.20;97827.28;5056718;28;20452;-72
2024/03/12 10:21:44;;;;;;;5.47;4.97;;;10.40;73.90;;;9.71;68.12;97832.28;5050472;28;20569;-71
2024/03/12 10:24:17;;;;;;;5.87;5.37;;;10.30;74.10;;;9.46;68.27;97827.59;5054031;28;20463;-72
2024/03/12 10:26:45;;;;;;;5.97;4.77;;;10.20;73.80;;;9.33;69.17;97832.03;5055064;28;20457;-71
2024/03/12 10:29:16;;;;;;;6.33;5.47;;;10.10;74.40;;;9.34;69.50;97822.91;5073678;28;20457;-72
2024/03/12 10:31:44;;;;;;;6.13;5.53;;;10.00;74.70;;;9.52;69.09;97832.16;5063667;28;20595;-71
2024/03/12 10:34:14;;;;;;;6.10;5.50;;;10.10;74.80;;;9.58;68.89;97833.19;5059426;28;20451;-71
2024/03/12 10:36:43;;;;;;;6.20;5.40;;;10.10;74.80;;;9.43;69.13;97828.03;5062378;28;20463;-71
2024/03/12 10:39:13;;;;;;;6.85;6.15;;;10.10;74.60;;;9.26;69.20;97828.50;5061494;28;20482;-71
2024/03/12 10:41:43;;;;;;;5.93;5.43;;;10.00;74.60;;;9.39;69.14;97834.91;5061941;28;20570;-70
2024/03/12 10:44:12;;;;;;;5.63;4.77;;;9.90;75.70;;;9.03;69.95;97823.59;5060761;28;20463;-70
2024/03/12 10:46:42;;;;;;;5.37;4.87;;;9.80;75.50;;;9.26;69.26;97844.69;5062643;28;20536;-71
2024/03/12 10:49:12;;;;;;;5.80;5.20;;;9.80;75.70;;;9.28;69.67;97848.00;5052908;28;20442;-73